This is the latest recevied weather packets stored in our database for station/object K2ATL. If no packets are shown the sender has not sent any weather packets the latest 10 day(s).
| Time | Temp. | Humidity | Pressure | Rain* | Wind** | Luminosity | Snow |
|---|---|---|---|---|---|---|---|
| 1787382720 | 20° C | 93% | 1101.6 hPa | 0 mm | - | 0 W/m² | - |
| 1787382418 | 20.56° C | 93% | 1101.5 hPa | 0 mm | - | 0 W/m² | - |
| 1787382114 | 20° C | 93% | 1101.7 hPa | 0 mm | - | 0 W/m² | - |
| 1787381813 | 20.56° C | 92% | 1101.6 hPa | 0 mm | - | 0 W/m² | - |
| 1787381512 | 21.11° C | 90% | 1101.5 hPa | 0 mm | - | 0 W/m² | - |
| 1787381212 | 22.78° C | 86% | 1101.7 hPa | 0 mm | - | 0 W/m² | - |
| 1787380908 | 23.33° C | 81% | 1101.5 hPa | 0 mm | - | 0 W/m² | - |
| 1787380607 | 22.78° C | 80% | 1101.7 hPa | 0 mm | - | 0 W/m² | - |
| 1787380304 | 23.33° C | 81% | 1101.6 hPa | 0 mm | - | 0 W/m² | - |
| 1787380003 | 23.33° C | 80% | 1101.8 hPa | 0 mm | - | 0 W/m² | - |
| 1787379699 | 23.33° C | 80% | 1101.7 hPa | 0 mm | - | 0 W/m² | - |
| 1787379394 | 23.33° C | 80% | 1101.9 hPa | 0 mm | - | 0 W/m² | - |
| 1787379093 | 22.78° C | 81% | 1101.9 hPa | 0 mm | - | 0 W/m² | - |
| 1787378792 | 22.78° C | 82% | 1101.9 hPa | 0 mm | - | 0 W/m² | - |
| 1787378489 | 22.78° C | 82% | 1102.1 hPa | 0 mm | - | 0 W/m² | - |
| 1787378188 | 22.78° C | 82% | 1102.1 hPa | 0 mm | - | 0 W/m² | - |
| 1787377883 | 22.78° C | 83% | 1102.1 hPa | 0 mm | - | 0 W/m² | - |
| 1787377582 | 22.22° C | 83% | 1102.2 hPa | 0 mm | - | 0 W/m² | - |
| 1787377281 | 22.22° C | 83% | 1102.3 hPa | 0 mm | - | 0 W/m² | - |
| 1787376977 | 21.67° C | 85% | 1102.2 hPa | 0 mm | - | 0 W/m² | - |
| 1787376674 | 21.67° C | 87% | 1102.2 hPa | 0 mm | - | 0 W/m² | - |
| 1787376369 | 22.22° C | 87% | 1102.3 hPa | 0 mm | - | 0 W/m² | - |
| 1787376065 | 22.22° C | 86% | 1102.4 hPa | 0 mm | - | 0 W/m² | - |
| 1787375760 | 22.22° C | 85% | 1102.4 hPa | 0 mm | - | 0 W/m² | - |
| 1787375455 | 22.22° C | 86% | 1102.3 hPa | 0 mm | - | 0 W/m² | - |
* Rain latest hour (hover to see other rain measurements)
** Current wind speed in m/s (hover to see current wind gust speed)